createdAt,value
2022-10-17T00:02:00.125Z,55.64
2022-10-17T00:05:05.137Z,54.84
2022-10-17T00:08:08.436Z,55.23
2022-10-17T00:11:17.163Z,54.68
2022-10-17T00:14:20.351Z,54.82
2022-10-17T00:17:23.597Z,54.81
2022-10-17T00:20:30.427Z,54.86
2022-10-17T00:23:34.713Z,54.68
2022-10-17T00:26:37.929Z,54.86
2022-10-17T00:29:41.370Z,55.32
2022-10-17T00:32:44.727Z,56.05
2022-10-17T00:35:49.319Z,55.96
2022-10-17T00:38:54.162Z,56.09
2022-10-17T00:41:57.383Z,56.03
2022-10-17T00:45:06.559Z,55.62
2022-10-17T00:48:12.464Z,56.08
2022-10-17T00:51:17.977Z,55.93
2022-10-17T00:54:25.561Z,56.29
2022-10-17T00:57:31.256Z,56.60
2022-10-17T01:00:34.711Z,56.28
2022-10-17T01:03:38.105Z,56.36
2022-10-17T01:06:42.724Z,57.20
2022-10-17T01:09:48.262Z,56.86
2022-10-17T01:13:05.690Z,56.86
2022-10-17T01:16:18.164Z,57.67
2022-10-17T01:19:44.489Z,57.82
2022-10-17T01:22:56.663Z,56.93
2022-10-17T01:26:15.054Z,56.82
2022-10-17T01:29:38.840Z,56.46
2022-10-17T01:32:49.043Z,55.99
2022-10-17T01:36:01.707Z,56.40
2022-10-17T01:39:17.188Z,56.73
2022-10-17T01:42:27.003Z,57.81
2022-10-17T01:45:34.996Z,57.31
2022-10-17T01:48:45.239Z,56.59
2022-10-17T01:51:54.034Z,56.67
2022-10-17T01:55:02.867Z,56.37
2022-10-17T01:58:10.409Z,56.24
2022-10-17T02:01:14.622Z,55.70
2022-10-17T02:04:19.588Z,55.90
2022-10-17T02:07:22.808Z,56.26
2022-10-17T02:10:37.726Z,56.48
2022-10-17T02:13:55.732Z,56.06
2022-10-17T02:17:08.301Z,56.50
2022-10-17T02:20:21.590Z,56.72
2022-10-17T02:23:33.735Z,56.30
2022-10-17T02:26:42.929Z,56.33
2022-10-17T02:29:50.173Z,56.49
2022-10-17T02:33:00.989Z,56.49
2022-10-17T02:36:23.612Z,57.01
2022-10-17T02:39:30.065Z,59.13
2022-10-17T02:42:34.067Z,58.84
2022-10-17T02:45:41.664Z,60.39
2022-10-17T02:48:51.511Z,59.15
2022-10-17T02:52:03.006Z,58.79
2022-10-17T02:55:13.472Z,58.14
2022-10-17T02:58:22.600Z,57.97
2022-10-17T03:01:26.679Z,57.58
2022-10-17T03:04:29.943Z,57.41
2022-10-17T03:07:34.589Z,57.03
2022-10-17T03:10:37.769Z,57.79
2022-10-17T03:13:42.743Z,58.70
2022-10-17T03:16:46.684Z,60.77
2022-10-17T03:19:52.251Z,59.16
2022-10-17T03:22:57.134Z,58.08
2022-10-17T03:26:03.954Z,59.45
2022-10-17T03:29:07.641Z,58.86
2022-10-17T03:32:12.299Z,57.88
2022-10-17T03:35:16.103Z,57.99
2022-10-17T03:38:24.927Z,58.32
2022-10-17T03:41:28.643Z,58.87
2022-10-17T03:44:31.956Z,58.34
2022-10-17T03:47:36.163Z,58.51
2022-10-17T03:50:39.713Z,59.15
2022-10-17T03:53:45.952Z,59.22
2022-10-17T03:56:49.910Z,59.47
2022-10-17T03:59:55.668Z,61.82
2022-10-17T04:02:59.659Z,61.67
2022-10-17T04:06:05.134Z,61.90
2022-10-17T04:09:12.688Z,62.64
2022-10-17T04:12:28.776Z,61.41
2022-10-17T04:15:32.783Z,62.09
2022-10-17T04:18:36.293Z,61.04
2022-10-17T04:21:39.723Z,61.14
2022-10-17T04:24:45.989Z,61.46
2022-10-17T04:28:10.320Z,60.62
2022-10-17T04:31:16.353Z,60.32
2022-10-17T04:34:40.677Z,60.22
2022-10-17T04:37:44.101Z,60.32
2022-10-17T04:40:54.892Z,59.91
2022-10-17T04:43:58.271Z,59.64
2022-10-17T04:47:03.382Z,61.09
2022-10-17T04:50:07.644Z,62.19
2022-10-17T04:53:12.324Z,62.99
2022-10-17T04:56:18.899Z,63.27
2022-10-17T04:59:22.622Z,62.57
2022-10-17T05:02:33.733Z,62.05
2022-10-17T05:05:40.052Z,62.14
2022-10-17T05:08:44.087Z,62.10
2022-10-17T05:11:49.149Z,61.85
2022-10-17T05:14:52.530Z,61.34
2022-10-17T05:17:57.231Z,60.69
2022-10-17T05:21:04.556Z,60.17
2022-10-17T05:24:09.760Z,60.47
2022-10-17T05:27:16.282Z,59.77
2022-10-17T05:30:19.834Z,59.36
2022-10-17T05:33:25.839Z,59.10
2022-10-17T05:36:29.987Z,58.22
2022-10-17T05:39:35.070Z,58.76
2022-10-17T05:42:41.320Z,58.52
2022-10-17T05:45:45.664Z,57.91
2022-10-17T05:48:55.749Z,58.00
2022-10-17T05:51:59.227Z,58.21
2022-10-17T05:55:02.639Z,56.61
2022-10-17T05:58:07.581Z,56.87
2022-10-17T06:01:15.789Z,55.84
2022-10-17T06:04:19.319Z,53.60
2022-10-17T06:07:22.783Z,53.70
2022-10-17T06:10:26.324Z,52.61
2022-10-17T06:13:32.664Z,52.17
2022-10-17T06:16:38.215Z,51.81
2022-10-17T06:19:42.245Z,51.36
2022-10-17T06:22:45.574Z,49.39
2022-10-17T06:25:54.695Z,49.29
2022-10-17T06:28:59.600Z,48.92
2022-10-17T06:32:09.880Z,49.00
2022-10-17T06:35:18.289Z,48.84
2022-10-17T06:38:21.791Z,47.48
2022-10-17T06:41:27.560Z,46.50
2022-10-17T06:44:32.825Z,46.76
2022-10-17T06:47:54.495Z,46.32
2022-10-17T06:51:17.079Z,45.54
2022-10-17T06:54:30.851Z,46.10
2022-10-17T06:57:43.164Z,45.13
2022-10-17T07:01:20.588Z,46.28
2022-10-17T07:04:25.866Z,45.25
2022-10-17T07:07:32.187Z,45.44
2022-10-17T07:10:38.468Z,43.96
2022-10-17T07:13:44.059Z,44.20
2022-10-17T07:16:48.850Z,44.27
2022-10-17T07:19:58.453Z,43.86
2022-10-17T07:23:02.357Z,43.48
2022-10-17T07:26:08.661Z,43.86
2022-10-17T07:29:13.900Z,42.90
2022-10-17T07:32:26.892Z,42.65
2022-10-17T07:35:30.172Z,42.17
2022-10-17T07:38:33.763Z,41.75
2022-10-17T07:41:36.987Z,41.94
2022-10-17T07:44:41.328Z,41.33
2022-10-17T07:47:47.761Z,41.73
2022-10-17T07:50:52.814Z,41.98
2022-10-17T07:53:56.562Z,42.04
2022-10-17T07:56:59.922Z,41.17
2022-10-17T08:00:03.395Z,41.31
2022-10-17T08:03:17.141Z,40.69
2022-10-17T08:06:20.438Z,40.12
2022-10-17T08:09:23.872Z,40.35
2022-10-17T08:12:27.625Z,40.16
2022-10-17T08:15:32.141Z,39.93
2022-10-17T08:18:37.363Z,39.58
2022-10-17T08:21:41.634Z,39.41
2022-10-17T08:24:46.340Z,38.31
2022-10-17T08:27:49.828Z,38.32
2022-10-17T08:30:53.088Z,38.54
2022-10-17T08:33:57.707Z,38.30
2022-10-17T08:37:00.929Z,38.46
2022-10-17T08:40:04.733Z,38.25
2022-10-17T08:43:23.399Z,37.54
2022-10-17T08:46:32.629Z,37.00
2022-10-17T08:49:47.269Z,36.97
2022-10-17T08:52:53.814Z,38.10
2022-10-17T08:55:57.689Z,37.82
2022-10-17T08:59:00.973Z,38.14
2022-10-17T09:02:22.187Z,38.66
2022-10-17T09:05:36.142Z,37.98
2022-10-17T09:08:48.320Z,37.00
2022-10-17T09:12:04.275Z,36.10
2022-10-17T09:15:42.918Z,35.59
2022-10-17T09:18:54.288Z,34.88
2022-10-17T09:22:02.754Z,34.26
2022-10-17T09:25:11.933Z,34.16
2022-10-17T09:28:21.301Z,34.84
2022-10-17T09:31:27.699Z,33.91
2022-10-17T09:34:33.488Z,34.29
2022-10-17T09:37:39.197Z,34.43
2022-10-17T09:40:42.645Z,33.18
2022-10-17T09:43:47.821Z,32.95
2022-10-17T09:47:29.121Z,32.97
2022-10-17T09:50:35.504Z,31.89
2022-10-17T09:53:42.464Z,32.51
2022-10-17T09:57:00.945Z,31.95
2022-10-17T10:00:08.172Z,31.80
2022-10-17T10:03:22.673Z,30.82
2022-10-17T10:06:25.865Z,30.66
2022-10-17T10:09:34.854Z,30.95
2022-10-17T10:12:40.985Z,29.89
2022-10-17T10:15:46.046Z,29.03
2022-10-17T10:18:51.121Z,29.57
2022-10-17T10:21:57.401Z,30.07
2022-10-17T10:25:16.569Z,29.47
2022-10-17T10:28:20.117Z,28.08
2022-10-17T10:31:35.543Z,27.66
2022-10-17T10:34:42.423Z,27.17
2022-10-17T10:37:48.920Z,26.20
2022-10-17T10:40:56.636Z,26.36
2022-10-17T10:43:59.938Z,27.12
2022-10-17T10:47:26.264Z,26.48
2022-10-17T10:50:34.752Z,26.48
2022-10-17T10:53:45.618Z,26.56
2022-10-17T10:56:53.683Z,26.66
2022-10-17T11:00:02.018Z,26.95
2022-10-17T11:03:13.208Z,27.16
2022-10-17T11:06:23.177Z,26.57
2022-10-17T11:09:35.181Z,26.64
2022-10-17T11:15:58.927Z,27.39
2022-10-17T11:19:13.716Z,27.69
2022-10-17T11:22:22.059Z,28.12
2022-10-17T11:25:35.543Z,27.65
2022-10-17T11:28:40.343Z,27.97
2022-10-17T11:31:48.561Z,27.70
2022-10-17T11:34:57.442Z,27.35
2022-10-17T11:38:14.793Z,27.11
2022-10-17T11:41:22.041Z,28.10
2022-10-17T11:44:31.108Z,28.99
2022-10-17T11:47:45.417Z,28.44
2022-10-17T11:54:30.181Z,27.69
2022-10-17T11:57:53.747Z,28.51
2022-10-17T12:01:11.601Z,28.41
2022-10-17T12:04:27.491Z,28.38
2022-10-17T12:07:40.346Z,28.34
2022-10-17T12:10:50.326Z,27.75
2022-10-17T12:13:56.329Z,27.61
2022-10-17T12:17:01.716Z,28.54
2022-10-17T12:20:34.170Z,28.06
2022-10-17T12:23:39.006Z,27.95
2022-10-17T12:26:42.231Z,28.32
2022-10-17T12:29:45.441Z,28.68
2022-10-17T12:33:07.426Z,28.00
2022-10-17T12:36:49.895Z,28.29
2022-10-17T12:39:53.093Z,28.13
2022-10-17T12:42:56.330Z,28.52
2022-10-17T12:46:00.642Z,29.00
2022-10-17T12:49:22.861Z,28.77
2022-10-17T12:53:03.693Z,28.99
2022-10-17T12:56:07.748Z,29.06
2022-10-17T12:59:17.129Z,29.00
2022-10-17T13:02:23.368Z,28.89
2022-10-17T13:05:31.936Z,28.89
2022-10-17T13:08:39.089Z,29.05
2022-10-17T13:11:43.839Z,29.60
2022-10-17T13:14:49.194Z,29.59
2022-10-17T13:18:00.432Z,29.78
2022-10-17T13:21:07.468Z,29.15
2022-10-17T13:24:25.263Z,28.98
2022-10-17T13:27:30.124Z,29.02
2022-10-17T13:30:35.359Z,29.39
2022-10-17T13:33:40.179Z,29.40
2022-10-17T13:36:49.137Z,29.97
2022-10-17T13:39:55.340Z,29.93
2022-10-17T13:43:02.204Z,30.54
2022-10-17T13:46:25.416Z,31.31
2022-10-17T13:49:34.737Z,30.98
2022-10-17T13:52:39.516Z,30.85
2022-10-17T13:56:09.448Z,30.77
2022-10-17T13:59:24.047Z,31.24
2022-10-17T14:02:28.928Z,31.26
2022-10-17T14:05:32.141Z,31.04
2022-10-17T14:08:38.196Z,30.40
2022-10-17T14:11:43.059Z,30.37
2022-10-17T14:15:12.759Z,30.82
2022-10-17T14:18:21.855Z,30.95
2022-10-17T14:21:42.917Z,31.06
2022-10-17T14:24:49.188Z,31.71
2022-10-17T14:28:02.546Z,31.48
2022-10-17T14:31:33.654Z,31.65
2022-10-17T14:34:38.968Z,31.61
2022-10-17T14:37:44.947Z,32.13
2022-10-17T14:41:00.307Z,32.37
2022-10-17T14:44:16.766Z,32.47
2022-10-17T14:47:42.686Z,33.02
2022-10-17T14:51:07.906Z,33.48
2022-10-17T14:54:23.022Z,33.86
2022-10-17T14:57:41.962Z,34.16
2022-10-17T15:00:45.236Z,34.94
2022-10-17T15:03:48.448Z,35.16
2022-10-17T15:06:55.899Z,35.12
2022-10-17T15:09:59.120Z,35.47
2022-10-17T15:16:31.822Z,35.72
2022-10-17T15:19:35.008Z,36.08
2022-10-17T15:22:38.233Z,36.18
2022-10-17T15:25:41.484Z,36.34
2022-10-17T15:28:47.540Z,36.42
2022-10-17T15:31:50.843Z,36.58
2022-10-17T15:34:54.114Z,36.78
2022-10-17T15:37:57.607Z,36.88
2022-10-17T15:41:00.767Z,37.32
2022-10-17T15:44:05.561Z,37.67
2022-10-17T15:47:16.562Z,38.68
2022-10-17T15:50:20.250Z,38.52
2022-10-17T15:53:24.209Z,38.57
2022-10-17T15:56:30.310Z,38.63
2022-10-17T15:59:36.232Z,38.82
2022-10-17T16:02:39.403Z,38.68
2022-10-17T16:05:42.692Z,38.65
2022-10-17T16:08:45.981Z,39.03
2022-10-17T16:11:49.232Z,39.42
2022-10-17T16:14:53.867Z,39.76
2022-10-17T16:18:01.587Z,39.96
2022-10-17T16:21:07.551Z,40.32
2022-10-17T16:24:12.197Z,40.66
2022-10-17T16:27:15.417Z,40.57
2022-10-17T16:33:29.068Z,41.28
2022-10-17T16:36:32.244Z,42.26
2022-10-17T16:39:35.635Z,42.91
2022-10-17T16:42:38.871Z,42.95
2022-10-17T16:45:43.472Z,43.80
2022-10-17T16:48:47.535Z,44.51
2022-10-17T16:51:50.810Z,44.98
2022-10-17T16:54:54.003Z,44.06
2022-10-17T16:57:57.170Z,43.93
2022-10-17T17:01:03.706Z,44.91
2022-10-17T17:04:06.891Z,44.88
2022-10-17T17:07:10.109Z,44.38
2022-10-17T17:10:13.318Z,44.32
2022-10-17T17:13:16.583Z,44.55
2022-10-17T17:16:23.659Z,44.20
2022-10-17T17:19:26.912Z,44.65
2022-10-17T17:22:30.100Z,44.34
2022-10-17T17:25:35.802Z,44.68
2022-10-17T17:28:39.774Z,46.14
2022-10-17T17:31:44.528Z,44.40
2022-10-17T17:34:47.917Z,44.24
2022-10-17T17:37:53.846Z,44.35
2022-10-17T17:40:57.205Z,45.32
2022-10-17T17:44:01.546Z,46.16
2022-10-17T17:47:06.440Z,45.64
2022-10-17T17:50:10.158Z,45.81
2022-10-17T17:53:15.475Z,45.03
2022-10-17T17:56:20.232Z,45.24
2022-10-17T17:59:23.450Z,45.34
2022-10-17T18:02:28.369Z,45.93
2022-10-17T18:05:32.125Z,45.51
2022-10-17T18:08:35.790Z,46.34
2022-10-17T18:11:39.671Z,45.62
2022-10-17T18:14:42.823Z,45.27
2022-10-17T18:17:47.484Z,45.51
2022-10-17T18:20:50.703Z,46.28
2022-10-17T18:23:53.913Z,47.55
2022-10-17T18:26:59.938Z,47.21
2022-10-17T18:30:03.302Z,47.05
2022-10-17T18:33:07.851Z,48.08
2022-10-17T18:36:13.691Z,48.92
2022-10-17T18:39:16.842Z,47.41
2022-10-17T18:42:20.538Z,47.62
2022-10-17T18:45:23.772Z,47.29
2022-10-17T18:48:28.325Z,46.68
2022-10-17T18:51:31.642Z,46.22
2022-10-17T18:54:34.928Z,46.33
2022-10-17T18:57:38.099Z,46.79
2022-10-17T19:00:41.317Z,46.33
2022-10-17T19:03:47.432Z,46.25
2022-10-17T19:06:50.660Z,45.40
2022-10-17T19:09:53.972Z,45.51
2022-10-17T19:12:57.159Z,45.78
2022-10-17T19:16:00.390Z,45.59
2022-10-17T19:19:07.370Z,46.46
2022-10-17T19:22:10.531Z,46.05
2022-10-17T19:25:13.846Z,45.97
2022-10-17T19:28:17.064Z,46.31
2022-10-17T19:31:26.207Z,46.34
2022-10-17T19:34:31.529Z,48.04
2022-10-17T19:37:35.354Z,47.53
2022-10-17T19:40:41.903Z,47.34
2022-10-17T19:43:45.607Z,47.06
2022-10-17T19:46:49.397Z,47.03
2022-10-17T19:49:54.229Z,46.81
2022-10-17T19:52:57.732Z,47.23
2022-10-17T19:56:01.365Z,47.11
2022-10-17T19:59:05.240Z,46.96
2022-10-17T20:02:08.625Z,47.04
2022-10-17T20:05:18.453Z,47.46
2022-10-17T20:08:22.580Z,47.83
2022-10-17T20:11:27.421Z,48.07
2022-10-17T20:14:30.688Z,50.89
2022-10-17T20:20:39.406Z,49.66
2022-10-17T20:23:43.583Z,50.04
2022-10-17T20:26:47.067Z,50.07
2022-10-17T20:29:50.391Z,49.99
2022-10-17T20:32:56.524Z,50.23
2022-10-17T20:36:01.130Z,50.58
2022-10-17T20:39:05.033Z,49.64
2022-10-17T20:42:08.240Z,49.95
2022-10-17T20:45:12.346Z,49.56
2022-10-17T20:48:17.205Z,50.36
2022-10-17T20:51:22.657Z,50.47
2022-10-17T20:54:26.165Z,49.88
2022-10-17T20:57:29.621Z,49.84
2022-10-17T21:00:33.122Z,49.93
2022-10-17T21:03:39.795Z,50.63
2022-10-17T21:06:48.212Z,51.33
2022-10-17T21:09:51.579Z,50.95
2022-10-17T21:12:54.761Z,52.11
2022-10-17T21:16:06.002Z,51.17
2022-10-17T21:19:09.298Z,50.17
2022-10-17T21:22:13.903Z,50.41
2022-10-17T21:25:17.223Z,50.92
2022-10-17T21:28:20.394Z,50.98
2022-10-17T21:31:25.642Z,50.59
2022-10-17T21:34:28.931Z,49.85
2022-10-17T21:37:33.590Z,51.40
2022-10-17T21:40:36.761Z,50.14
2022-10-17T21:43:40.276Z,49.42
2022-10-17T21:46:44.288Z,49.41
2022-10-17T21:49:47.540Z,49.67
2022-10-17T21:52:52.145Z,49.79
2022-10-17T21:55:55.384Z,50.71
2022-10-17T21:58:59.827Z,50.91
2022-10-17T22:02:03.192Z,50.23
2022-10-17T22:05:07.020Z,49.65
2022-10-17T22:08:11.686Z,49.63
2022-10-17T22:11:21.586Z,50.32
2022-10-17T22:14:26.284Z,49.54
2022-10-17T22:17:29.643Z,50.12
2022-10-17T22:20:35.558Z,50.13
2022-10-17T22:23:40.371Z,49.91
2022-10-17T22:26:44.658Z,49.95
2022-10-17T22:29:47.937Z,51.11
2022-10-17T22:32:51.151Z,50.84
2022-10-17T22:35:54.556Z,51.99
2022-10-17T22:38:59.137Z,52.76
2022-10-17T22:42:02.305Z,54.22
2022-10-17T22:45:06.158Z,53.31
2022-10-17T22:48:10.384Z,52.86
2022-10-17T22:51:14.148Z,52.07
2022-10-17T22:54:18.992Z,51.27
2022-10-17T22:57:22.317Z,50.72
2022-10-17T23:00:25.497Z,50.41
2022-10-17T23:03:30.115Z,50.61
2022-10-17T23:06:33.389Z,50.51
2022-10-17T23:09:38.136Z,50.44
2022-10-17T23:12:41.447Z,50.23
2022-10-17T23:15:45.073Z,50.67
2022-10-17T23:18:48.276Z,51.67
2022-10-17T23:21:51.495Z,51.13
2022-10-17T23:24:56.121Z,51.32
2022-10-17T23:27:59.329Z,51.51
2022-10-17T23:31:10.698Z,51.07
2022-10-17T23:34:14.069Z,51.07
2022-10-17T23:37:17.292Z,51.84
2022-10-17T23:40:22.005Z,52.12
2022-10-17T23:43:26.615Z,53.08
2022-10-17T23:46:29.815Z,56.13
2022-10-17T23:49:33.052Z,54.59
2022-10-17T23:52:36.316Z,54.04
2022-10-17T23:55:40.940Z,53.60
2022-10-17T23:58:44.231Z,53.22
